Pagina principale
METAR-TAF:

METAR-TAF

Aeroporti :

Aeroporto di Figari Corsica del Sud

Figari, Francia

latitudine: 41-30N, longitudine: 009-06E, altezza: 26 m

Osservazione

Il bollettino è stato emesso 23 minuti fa, alle 13:30 UTC
Vento 7 kt da est/nord-est, variando fra nord/nord-est e est
Temperature 19°C
Umidità 64%
Pressione 1012 hPa
Visibilità 10 km o più
nessuna nube inferiore a 1500 m e nessun cumulonembo

METAR: LFKF 061330Z AUTO 07007KT 030V100 CAVOK 19/12 Q1012 NOSIG

Ora: 14:53 (13:53 UTC)

Previsione

Il bollettino è stato emesso 5 ore e 53 minuti fa, alle 08:00 UTC
Previsione valida dal 06 alle 09 UTC al 07 alle 09 UTC
Vento 10 kt da est/nord-est
Visibilità 10 km o più
nessuna nube inferiore a 1500 m e nessun cumulonembo
Evoluzione graduale
dal 06 alle 22 UTC al 06 alle 24 UTC
Vento 10 kt da sud-ovest

TAF: LFKF 060800Z 0609/0709 07010KT CAVOK BECMG 0622/0624 22010KT

Osservazioni e previsioni meteorologiche di più di 4000 aeroporti (messaggi METAR e TAF).

Le stazioni disponibili sono rappresentate dai dischi gialli e rossi sulla carta.

Puntare il mouse per vedere il nome della stazione.

Clicca sopra per visualizzare le osservazioni e previsioni meteorologiche.

Per cambiare la mappa : fare clic sui pulsanti verdi con una croce nera per ingrandire, il pulsante verde con un trattino per diminuire, o sulla freccia verde per le mappe adiacenti.


METAR-TAF: